Scranton, North Carolina
Current Conditions -  °F | °C
As of 4:56 AM on Thursday 23 Oct 2014 (Local Time) from K2DP Reporting Station
Overcast Overcast  
Wind Chill: 54°   Ceiling: 3900
Heat Index: 54°   Visibility: 10mi
Dew Point: 45°   Wind: 15mph
Humidity: 72%   Direction: 310°NW
Pressure: 29.9"   Gusts: 22mph
Location:  35.5°N, 76.45°W
Report Text: K2DP 230856Z AUTO 31013G19KT 10SM OVC039 12/07 A2990 RMK AO2 SLPNO T01220073 55006
Loading
Personal Weather Stations






























Interactive Weather Map
Tropical Storm Tracking
New forecast layout! Learn more

10-Day Weather Forecast

Advertisements
Track Severe Weather on mobile